Latest Coastal Weather Observations for Brisbane Airport

IDQ60701

Issued at 9:12 am EST Friday 3 July 2015 (issued every 10 minutes, with the page automatically refreshed every 10 minutes)

About coastal observations | Map of coastal stations | Coastal observations for QLD | Marine services | Other Formats
Station Details ID: 040842 Name: BRISBANE AERO Lat: -27.39 Lon: 153.13 Height: 4.51 m
Data from the previous 72 hours. | See also: Recent months at Brisbane Airport
Date/Time
EST
Temp

°C
Wind Pressure Rain
since 9am
mm
Weather Cloud Vis
km
Sea
Height
m
Swell
Dir
 
Speed
knots
Gust
knots
hPa Trend Height
m
Period
s
Dir
03/09:00am 12.6 SSW 13 17 1022.9 R 0.0 Fine Clear 40 - - - -
03/08:30am 11.5 SSW 13 16 1022.6 - 0.0 - - 10 - - - -
03/08:00am 10.1 SSW 11 15 1022.3 - 0.0 - Mostly clear 10 - - - -
03/07:30am 8.5 SSW 9 12 1022.1 - 0.0 - Mostly clear 10 - - - -
03/07:00am 7.2 SSW 9 12 1021.9 - 0.0 - Mostly clear 10 - - - -
03/06:30am 7.9 SSW 8 10 1021.5 - 0.0 - Mostly clear 10 - - - -
03/06:00am 7.7 SSW 7 9 1021.1 R 0.0 Fine Mostly clear 35 - - - -
03/05:30am 8.2 S 7 10 1020.6 - 0.0 - - 10 - - - -
03/05:00am 8.4 SSW 9 11 1020.2 - 0.0 - - 10 - - - -
03/04:30am 7.0 SSW 7 9 1020.0 - 0.0 - - 10 - - - -
03/04:00am 5.6 SW 8 9 1020.2 - 0.0 - - 10 - - - -
03/03:30am 6.5 SW 8 10 1020.1 - 0.0 - - 10 - - - -
03/03:00am 6.0 SW 10 12 1020.1 R 0.0 Fine Clear 30 - - - -
03/02:30am 6.5 SW 10 12 1020.0 - 0.0 - - 10 - - - -
03/02:00am 5.9 SW 10 12 1020.1 - 0.0 - - 10 - - - -
03/01:30am 8.7 SW 6 8 1020.2 - 0.0 - - 10 - - - -
03/01:00am 9.2 WSW 8 10 1020.2 - 0.0 - - 10 - - - -
03/12:30am 9.3 W 9 11 1020.1 - 0.0 - - 10 - - - -
 
Date/Time
EST
Temp

°C
Wind Pressure Rain
since 9am
mm
Weather Cloud Vis
km
Sea
Height
m
Swell
Dir
 
Speed
knots
Gust
knots
hPa Trend Height
m
Period
s
Dir
02/11:30pm 9.8 WSW 9 10 1020.3 - 0.0 - - 10 - - - -
02/11:00pm 10.5 W 7 8 1020.6 - 0.0 - - 10 - - - -
02/10:30pm 10.4 WSW 8 10 1020.4 - 0.0 - - 10 - - - -
02/10:00pm 11.0 WSW 7 8 1020.3 - 0.0 - - 10 - - - -
02/09:30pm 11.9 WSW 9 13 1019.8 - 0.0 - - 10 - - - -
02/09:00pm 11.8 W 7 9 1019.9 R 0.0 Fine Clear 30 - - - -
02/08:30pm 12.3 WSW 8 10 1019.6 - 0.0 - - 10 - - - -
02/08:00pm 12.4 W 11 14 1019.5 - 0.0 - - 10 - - - -
02/07:30pm 13.0 W 13 17 1019.0 - 0.0 - - 10 - - - -
02/07:00pm 13.3 W 11 15 1019.0 - 0.0 - - 10 - - - -
02/06:30pm 13.7 W 11 14 1018.7 - 0.0 - - 10 - - - -
02/06:00pm 14.5 W 12 15 1018.7 F 0.0 Fine Mostly clear 40 - - - -
02/05:30pm 14.7 W 8 10 1018.6 - 0.0 - - 10 - - - -
02/05:00pm 15.5 WSW 8 10 1018.2 - 0.0 - - 10 - - - -
02/04:30pm 17.1 WSW 12 16 1018.2 - 0.0 - - 10 - - - -
02/04:00pm 17.6 WSW 14 18 1018.2 - 0.0 - - 10 - - - -
02/03:30pm 17.9 WSW 12 17 1018.0 - 0.0 - - 10 - - - -
02/03:00pm 18.4 W 13 17 1018.0 F 0.0 Fine Partly cloudy 40 - - - -
02/02:30pm 18.1 WSW 15 18 1018.1 - 0.0 - - 10 - - - -
02/02:00pm 18.7 W 13 16 1018.2 - 0.0 - - 10 - - - -
02/01:30pm 18.7 W 14 16 1018.2 - 0.0 - - 10 - - - -
02/01:00pm 19.6 W 13 16 1018.6 - 0.0 - - 10 - - - -
02/12:30pm 19.3 W 12 15 1019.2 - 0.0 - - 10 - - - -
02/12:00pm 19.5 W 12 17 1019.7 F 0.0 Fine Partly cloudy 40 - - - -
02/11:30am 19.3 W 12 16 1020.4 - 0.0 - - 10 - - - -
02/11:00am 18.5 SW 9 14 1020.9 - 0.0 - - 10 - - - -
02/10:30am 17.6 SW 11 15 1021.5 - 0.0 - - 10 - - - -
02/10:00am 17.4 SW 13 16 1021.7 - 0.0 - Mostly clear 10 - - - -
02/09:30am 17.0 SW 14 17 1022.4 - 0.0 - Mostly clear 10 - - - -
02/09:00am 15.8 WSW 13 16 1022.0 R 0.0 Fine Mostly clear 40 - - - -
02/08:30am 14.9 SW 12 15 1021.5 - 0.0 - Mostly clear 10 - - - -
02/08:00am 14.0 SW 8 11 1021.5 - 0.0 - Mostly clear 10 - - - -
02/07:30am 12.1 WSW 7 9 1021.3 - 0.0 - - 10 - - - -
02/07:00am 11.3 SW 6 7 1021.3 - 0.0 - - 10 - - - -
02/06:30am 11.4 WSW 5 7 1021.0 - 0.0 - Mostly clear 10 - - - -
02/06:00am 10.9 W 7 9 1020.6 F 0.0 Fine Mostly clear 30 - - - -
02/05:30am 11.1 S 3 6 1020.5 - 0.0 - - 10 - - - -
02/05:00am 11.9 S 5 6 1020.4 - 0.0 - - 10 - - - -
02/04:30am 11.5 SSW 7 9 1020.4 - 0.0 - - 10 - - - -
02/04:00am 12.2 SW 7 9 1020.5 - 0.0 - - 10 - - - -
02/03:30am 12.0 SW 6 7 1020.8 - 0.0 - - 10 - - - -
02/03:00am 12.3 SW 5 7 1020.9 S 0.0 Fine Mostly clear 30 - - - -
02/02:30am 12.1 SW 6 7 1020.9 - 0.0 - - 10 - - - -
02/02:00am 12.0 WSW 6 8 1020.8 - 0.0 - Mostly clear 10 - - - -
02/01:30am 12.7 WNW 6 7 1021.3 - 0.0 - Mostly clear 10 - - - -
02/01:00am 12.5 W 5 7 1021.3 - 0.0 - - 10 - - - -
02/12:30am 12.7 CALM 0 4 1021.4 - 0.0 - - 10 - - - -
02/12:00am 12.5 NW 5 7 1021.6 F 0.0 Fine Mostly clear 30 - - - -
 
Date/Time
EST
Temp

°C
Wind Pressure Rain
since 9am
mm
Weather Cloud Vis
km
Sea
Height
m
Swell
Dir
 
Speed
knots
Gust
knots
hPa Trend Height
m
Period
s
Dir
01/11:30pm 13.1 CALM 0 4 1021.8 - 0.0 - Mostly clear 10 - - - -
01/11:00pm 13.5 NW 5 6 1021.9 - 0.0 - Mostly clear 10 - - - -
01/10:30pm 14.1 WNW 6 8 1022.2 - 0.0 - Mostly clear 10 - - - -
01/10:00pm 14.1 NW 6 7 1022.3 - 0.0 - Mostly clear 10 - - - -
01/09:30pm 14.6 NW 5 6 1022.4 - 0.0 - Mostly clear 10 - - - -
01/09:00pm 14.7 WNW 4 5 1022.6 R 0.0 Fine Mostly clear 30 - - - -
01/08:30pm 15.4 WSW 6 7 1022.1 - 0.0 - Mostly clear 10 - - - -
01/08:00pm 15.9 WSW 7 9 1021.8 - 0.0 - Mostly clear 10 - - - -
01/07:30pm 17.0 W 6 9 1021.9 - 0.0 - Mostly clear 10 - - - -
01/07:00pm 17.0 WNW 5 6 1021.6 - 0.0 - - 10 - - - -
01/06:30pm 16.2 CALM 0 0 1021.4 - 0.0 - - 10 - - - -
01/06:00pm 17.3 ENE 5 6 1020.8 F 0.0 Fine Mostly clear 25 - - - -
01/05:30pm 15.8 NE 4 5 1020.7 - 0.0 - - 10 - - - -
01/05:00pm 17.7 NNE 5 5 1020.5 - 0.0 - - 10 - - - -
01/04:30pm 19.4 NNE 6 7 1020.4 - 0.0 - Mostly clear 10 - - - -
01/04:00pm 20.1 NNE 7 7 1020.5 - 0.0 - Mostly clear 10 - - - -
01/03:30pm 20.8 NNE 6 7 1020.5 - 0.0 - Mostly clear 10 - - - -
01/03:00pm 20.8 NNE 6 8 1020.6 F 0.0 Fine Partly cloudy 25 - - - -
01/02:30pm 21.3 NE 7 9 1020.7 - 0.0 - Partly cloudy 10 - - - -
01/02:00pm 22.0 NNE 8 9 1020.8 - 0.0 - Partly cloudy 10 - - - -
01/01:30pm 22.7 CALM 0 4 1021.0 - 0.0 - Partly cloudy 10 - - - -
01/01:00pm 21.7 S 4 8 1021.4 - 0.0 - Mostly clear 10 - - - -
01/12:30pm 21.1 S 5 8 1022.0 - 0.0 - Mostly clear 10 - - - -
01/12:00pm 20.7 SSW 8 10 1022.7 F 0.0 Distant precip. Partly cloudy 20 - - - -
01/11:30am 20.0 SSW 8 13 1023.5 - 0.0 - Mostly clear 10 - - - -
01/11:00am 18.9 SSW 8 10 1023.9 - 0.0 - Mostly clear 10 - - - -
01/10:30am 19.1 SSW 8 11 1024.2 - 0.0 - Mostly clear 10 - - - -
01/10:00am 18.0 SSW 8 10 1024.4 - 0.0 - Mostly clear 10 - - - -
01/09:30am 16.9 SSW 7 9 1024.6 - 0.0 - Mostly clear 10 - - - -
01/09:00am 15.9 SW 6 7 1024.4 F 0.0 Haze Mostly cloudy 15 - - - -
01/08:30am 14.9 SSW 7 9 1024.5 - 0.0 - Mostly clear 10 - - - -
01/08:00am 14.4 S 3 5 1024.2 - 0.0 - Mostly clear 10 - - - -
01/07:30am 14.0 SSW 7 8 1024.1 - 0.0 - Mostly clear 10 - - - -
01/07:00am 13.1 SSW 6 8 1023.7 - 0.0 - Partly cloudy 10 - - - -
01/06:30am 12.6 SSW 5 6 1023.7 - 0.0 - - 10 - - - -
01/06:00am 12.7 SSW 4 6 1023.4 F 0.0 Fine Mostly cloudy 15 - - - -
01/05:30am 12.7 SSW 5 6 1023.3 - 0.0 - - 10 - - - -
01/05:00am 12.1 SSW 7 7 1023.3 - 0.0 - - 10 - - - -
01/04:30am 12.7 SSW 6 7 1023.0 - 0.0 - - 10 - - - -
01/04:00am 12.1 SSW 7 8 1023.1 - 0.0 - - 10 - - - -
01/03:30am 12.5 SSW 7 8 1023.1 - 0.0 - - 10 - - - -
01/03:00am 13.1 SSW 8 9 1023.6 F 0.0 Fine Mostly clear 20 - - - -
01/02:30am 12.7 SSW 6 7 1023.9 - 0.0 - - 10 - - - -
01/02:00am 13.0 SSW 6 8 1024.2 - 0.0 - - 10 - - - -
01/01:30am 12.7 SSW 5 6 1024.5 - 0.0 - - 10 - - - -
01/01:00am 13.9 SSW 4 5 1024.8 - 0.0 - - 10 - - - -
01/12:30am 13.7 WSW 1 3 1024.9 - 0.0 - - 10 - - - -
01/12:00am 14.1 WNW 3 5 1024.9 F 0.0 Fine Mostly clear 30 - - - -
 
Date/Time
EST
Temp

°C
Wind Pressure Rain
since 9am
mm
Weather Cloud Vis
km
Sea
Height
m
Swell
Dir
 
Speed
knots
Gust
knots
hPa Trend Height
m
Period
s
Dir
30/11:30pm 14.4 SW 1 4 1025.0 - 0.0 - - 10 - - - -
30/11:00pm 14.1 SSW 4 5 1025.0 - 0.0 - - 10 - - - -
30/10:30pm 14.7 SW 4 5 1025.3 - 0.0 - - 10 - - - -
30/10:00pm 15.1 SSW 1 5 1025.4 - 0.0 - - 10 - - - -
30/09:30pm 15.1 SW 3 4 1025.6 - 0.0 - - 10 - - - -
30/09:00pm 15.2 CALM 0 0 1025.4 R 0.0 Fine Mostly cloudy 30 - - - -
30/08:30pm 16.2 CALM 0 0 1025.4 - 0.0 - - 10 - - - -
30/08:00pm 17.0 SSE 4 5 1025.3 - 0.0 - - 10 - - - -
30/07:30pm 17.3 SE 4 5 1024.9 - 0.0 - - 10 - - - -
30/07:00pm 17.4 ESE 4 5 1024.9 - 0.0 - - 10 - - - -
30/06:30pm 17.6 E 3 4 1024.8 - 0.0 - - 10 - - - -
30/06:00pm 17.6 SE 4 5 1024.4 F 0.0 Fine Mostly cloudy 30 - - - -
30/05:30pm 18.1 ESE 3 4 1024.3 - 0.0 - Mostly clear 10 - - - -
30/05:00pm 18.3 CALM 0 4 1024.2 - 0.0 - Mostly clear 10 - - - -
30/04:30pm 19.0 CALM 0 0 1024.1 - 0.0 - Mostly clear 10 - - - -
30/04:00pm 19.8 NE 4 5 1024.1 - 0.0 - Mostly clear 10 - - - -
30/03:30pm 20.6 ENE 5 6 1024.0 - 0.0 - Mostly clear 10 - - - -
30/03:00pm 20.7 E 5 8 1024.0 F 0.0 Fine Partly cloudy 30 - - - -
30/02:30pm 21.2 ENE 6 9 1024.1 - 0.0 - Mostly clear 10 - - - -
30/02:00pm 21.3 E 5 7 1024.4 - 0.0 - Mostly clear 10 - - - -
30/01:30pm 21.8 ESE 5 7 1024.7 - 0.0 - Mostly clear 10 - - - -
30/01:00pm 21.2 ESE 6 8 1025.1 - 0.0 - Mostly clear 10 - - - -
30/12:30pm 20.8 SE 6 8 1025.4 - 0.0 - Partly cloudy 10 - - - -
30/12:00pm 21.1 SE 6 10 1025.7 F 0.0 Fine Partly cloudy 30 - - - -
30/11:30am 20.7 SSE 5 7 1026.2 - 0.0 - Mostly clear 10 - - - -
30/11:00am 20.1 S 8 10 1026.7 - 0.0 - Mostly clear 10 - - - -
30/10:30am 19.2 SSW 9 12 1027.2 - 0.0 - Mostly clear 10 - - - -
30/10:00am 18.8 SW 9 13 1028.0 - 0.0 - Mostly clear 10 - - - -
30/09:30am 17.9 SSW 7 8 1027.8 - 0.0 - Mostly clear 10 - - - -

Other Formats:

Comma delimited format used in spreadsheet applications
http://www.bom.gov.au/fwo/IDQ60701/IDQ60701.94578.axf

JavaScript Object Notation format (JSON) in row-major order
http://www.bom.gov.au/fwo/IDQ60701/IDQ60701.94578.json